sensor_id;sensor_type;location;lat;lon;timestamp;P1;durP1;ratioP1;P2;durP2;ratioP2
84577;SDS011;74803;44.756;19.218;2024-01-10T00:01:34;59.05;;;29.40;;
84577;SDS011;74803;44.756;19.218;2024-01-10T00:03:59;49.38;;;26.55;;
84577;SDS011;74803;44.756;19.218;2024-01-10T00:06:25;51.28;;;30.05;;
84577;SDS011;74803;44.756;19.218;2024-01-10T00:08:51;50.00;;;29.27;;
84577;SDS011;74803;44.756;19.218;2024-01-10T00:11:16;66.70;;;29.63;;
84577;SDS011;74803;44.756;19.218;2024-01-10T00:13:42;62.83;;;29.80;;
84577;SDS011;74803;44.756;19.218;2024-01-10T00:16:08;81.47;;;36.53;;
84577;SDS011;74803;44.756;19.218;2024-01-10T00:18:36;67.13;;;31.33;;
84577;SDS011;74803;44.756;19.218;2024-01-10T00:23:28;50.35;;;23.75;;
84577;SDS011;74803;44.756;19.218;2024-01-10T00:25:54;64.10;;;30.92;;
84577;SDS011;74803;44.756;19.218;2024-01-10T00:28:19;66.07;;;30.30;;
84577;SDS011;74803;44.756;19.218;2024-01-10T00:30:45;60.97;;;29.63;;
84577;SDS011;74803;44.756;19.218;2024-01-10T00:33:15;68.75;;;33.30;;
84577;SDS011;74803;44.756;19.218;2024-01-10T00:35:41;55.33;;;29.85;;
84577;SDS011;74803;44.756;19.218;2024-01-10T00:38:06;67.70;;;31.25;;
84577;SDS011;74803;44.756;19.218;2024-01-10T00:40:32;84.78;;;39.83;;
84577;SDS011;74803;44.756;19.218;2024-01-10T00:42:58;82.32;;;30.73;;
84577;SDS011;74803;44.756;19.218;2024-01-10T00:45:24;82.82;;;34.13;;
84577;SDS011;74803;44.756;19.218;2024-01-10T00:47:49;69.50;;;33.65;;
84577;SDS011;74803;44.756;19.218;2024-01-10T00:50:15;65.00;;;27.48;;
84577;SDS011;74803;44.756;19.218;2024-01-10T00:55:07;52.25;;;24.13;;
84577;SDS011;74803;44.756;19.218;2024-01-10T00:57:33;71.43;;;30.23;;
84577;SDS011;74803;44.756;19.218;2024-01-10T00:59:59;51.95;;;25.50;;
84577;SDS011;74803;44.756;19.218;2024-01-10T01:02:24;72.07;;;28.67;;
84577;SDS011;74803;44.756;19.218;2024-01-10T01:04:50;76.10;;;34.90;;
84577;SDS011;74803;44.756;19.218;2024-01-10T01:07:16;78.18;;;34.47;;
84577;SDS011;74803;44.756;19.218;2024-01-10T01:09:41;57.05;;;30.52;;
84577;SDS011;74803;44.756;19.218;2024-01-10T01:12:07;63.88;;;32.40;;
84577;SDS011;74803;44.756;19.218;2024-01-10T01:14:33;81.32;;;26.95;;
84577;SDS011;74803;44.756;19.218;2024-01-10T01:16:58;77.07;;;32.05;;
84577;SDS011;74803;44.756;19.218;2024-01-10T01:19:24;62.97;;;33.00;;
84577;SDS011;74803;44.756;19.218;2024-01-10T01:21:49;59.75;;;29.05;;
84577;SDS011;74803;44.756;19.218;2024-01-10T01:24:15;79.88;;;29.77;;
84577;SDS011;74803;44.756;19.218;2024-01-10T01:26:41;84.47;;;33.63;;
84577;SDS011;74803;44.756;19.218;2024-01-10T01:29:06;76.07;;;29.15;;
84577;SDS011;74803;44.756;19.218;2024-01-10T01:31:33;72.28;;;33.78;;
84577;SDS011;74803;44.756;19.218;2024-01-10T01:33:59;94.97;;;33.25;;
84577;SDS011;74803;44.756;19.218;2024-01-10T01:36:25;73.70;;;34.58;;
84577;SDS011;74803;44.756;19.218;2024-01-10T01:38:50;69.47;;;32.60;;
84577;SDS011;74803;44.756;19.218;2024-01-10T01:41:16;65.72;;;31.08;;
84577;SDS011;74803;44.756;19.218;2024-01-10T01:43:43;76.43;;;32.88;;
84577;SDS011;74803;44.756;19.218;2024-01-10T01:46:08;59.25;;;27.73;;
84577;SDS011;74803;44.756;19.218;2024-01-10T01:48:34;65.60;;;28.73;;
84577;SDS011;74803;44.756;19.218;2024-01-10T01:51:01;102.10;;;34.47;;
84577;SDS011;74803;44.756;19.218;2024-01-10T01:53:30;70.22;;;31.92;;
84577;SDS011;74803;44.756;19.218;2024-01-10T01:55:55;59.65;;;30.45;;
84577;SDS011;74803;44.756;19.218;2024-01-10T01:58:22;67.28;;;29.15;;
84577;SDS011;74803;44.756;19.218;2024-01-10T02:00:49;74.57;;;35.45;;
84577;SDS011;74803;44.756;19.218;2024-01-10T02:03:16;67.50;;;30.33;;
84577;SDS011;74803;44.756;19.218;2024-01-10T02:05:43;62.22;;;25.80;;
84577;SDS011;74803;44.756;19.218;2024-01-10T02:08:09;76.43;;;34.17;;
84577;SDS011;74803;44.756;19.218;2024-01-10T02:10:34;53.28;;;29.15;;
84577;SDS011;74803;44.756;19.218;2024-01-10T02:13:00;57.90;;;26.20;;
84577;SDS011;74803;44.756;19.218;2024-01-10T02:17:52;61.45;;;26.02;;
84577;SDS011;74803;44.756;19.218;2024-01-10T02:20:18;84.55;;;29.73;;
84577;SDS011;74803;44.756;19.218;2024-01-10T02:25:12;59.15;;;29.98;;
84577;SDS011;74803;44.756;19.218;2024-01-10T02:27:41;79.00;;;29.65;;
84577;SDS011;74803;44.756;19.218;2024-01-10T02:30:07;66.78;;;30.40;;
84577;SDS011;74803;44.756;19.218;2024-01-10T02:32:34;82.65;;;35.35;;
84577;SDS011;74803;44.756;19.218;2024-01-10T02:35:00;68.18;;;27.98;;
84577;SDS011;74803;44.756;19.218;2024-01-10T02:37:27;74.35;;;34.90;;
84577;SDS011;74803;44.756;19.218;2024-01-10T02:39:53;82.57;;;37.25;;
84577;SDS011;74803;44.756;19.218;2024-01-10T02:42:18;65.55;;;27.65;;
84577;SDS011;74803;44.756;19.218;2024-01-10T02:44:44;76.30;;;29.85;;
84577;SDS011;74803;44.756;19.218;2024-01-10T02:47:10;78.22;;;28.73;;
84577;SDS011;74803;44.756;19.218;2024-01-10T02:49:37;71.13;;;32.65;;
84577;SDS011;74803;44.756;19.218;2024-01-10T02:52:03;53.97;;;26.63;;
84577;SDS011;74803;44.756;19.218;2024-01-10T02:54:28;111.95;;;33.30;;
84577;SDS011;74803;44.756;19.218;2024-01-10T02:56:54;71.53;;;28.25;;
84577;SDS011;74803;44.756;19.218;2024-01-10T02:59:20;75.47;;;28.52;;
84577;SDS011;74803;44.756;19.218;2024-01-10T03:01:45;95.18;;;38.17;;
84577;SDS011;74803;44.756;19.218;2024-01-10T03:04:11;65.25;;;32.65;;
84577;SDS011;74803;44.756;19.218;2024-01-10T03:06:37;74.53;;;34.85;;
84577;SDS011;74803;44.756;19.218;2024-01-10T03:09:02;107.80;;;40.95;;
84577;SDS011;74803;44.756;19.218;2024-01-10T03:11:28;80.88;;;31.52;;
84577;SDS011;74803;44.756;19.218;2024-01-10T03:14:01;67.38;;;30.42;;
84577;SDS011;74803;44.756;19.218;2024-01-10T03:16:29;61.13;;;28.10;;
84577;SDS011;74803;44.756;19.218;2024-01-10T03:18:55;57.72;;;26.30;;
84577;SDS011;74803;44.756;19.218;2024-01-10T03:21:21;63.35;;;29.42;;
84577;SDS011;74803;44.756;19.218;2024-01-10T03:23:54;54.47;;;28.33;;
84577;SDS011;74803;44.756;19.218;2024-01-10T03:26:21;66.07;;;31.20;;
84577;SDS011;74803;44.756;19.218;2024-01-10T03:31:13;75.88;;;29.98;;
84577;SDS011;74803;44.756;19.218;2024-01-10T03:33:38;87.93;;;37.13;;
84577;SDS011;74803;44.756;19.218;2024-01-10T03:36:05;108.20;;;50.10;;
84577;SDS011;74803;44.756;19.218;2024-01-10T03:38:31;66.32;;;35.85;;
84577;SDS011;74803;44.756;19.218;2024-01-10T03:40:57;86.70;;;30.48;;
84577;SDS011;74803;44.756;19.218;2024-01-10T03:43:23;66.55;;;27.00;;
84577;SDS011;74803;44.756;19.218;2024-01-10T03:45:48;78.88;;;37.72;;
84577;SDS011;74803;44.756;19.218;2024-01-10T03:48:14;100.38;;;45.00;;
84577;SDS011;74803;44.756;19.218;2024-01-10T03:50:40;151.48;;;63.55;;
84577;SDS011;74803;44.756;19.218;2024-01-10T03:53:05;78.30;;;35.97;;
84577;SDS011;74803;44.756;19.218;2024-01-10T03:55:31;176.38;;;71.68;;
84577;SDS011;74803;44.756;19.218;2024-01-10T03:57:57;80.35;;;34.05;;
84577;SDS011;74803;44.756;19.218;2024-01-10T04:00:23;65.97;;;30.98;;
84577;SDS011;74803;44.756;19.218;2024-01-10T04:02:48;60.13;;;29.80;;
84577;SDS011;74803;44.756;19.218;2024-01-10T04:05:14;90.32;;;39.25;;
84577;SDS011;74803;44.756;19.218;2024-01-10T04:07:40;128.90;;;54.80;;
84577;SDS011;74803;44.756;19.218;2024-01-10T04:10:12;98.47;;;33.25;;
84577;SDS011;74803;44.756;19.218;2024-01-10T04:12:39;65.57;;;29.40;;
84577;SDS011;74803;44.756;19.218;2024-01-10T04:15:05;85.75;;;28.70;;
84577;SDS011;74803;44.756;19.218;2024-01-10T04:17:32;65.38;;;31.08;;
84577;SDS011;74803;44.756;19.218;2024-01-10T04:19:58;46.30;;;26.35;;
84577;SDS011;74803;44.756;19.218;2024-01-10T04:22:25;114.47;;;42.80;;
84577;SDS011;74803;44.756;19.218;2024-01-10T04:24:51;73.30;;;35.83;;
84577;SDS011;74803;44.756;19.218;2024-01-10T04:27:16;88.07;;;39.08;;
84577;SDS011;74803;44.756;19.218;2024-01-10T04:29:45;76.00;;;32.85;;
84577;SDS011;74803;44.756;19.218;2024-01-10T04:32:11;87.38;;;33.72;;
84577;SDS011;74803;44.756;19.218;2024-01-10T04:34:37;66.93;;;27.20;;
84577;SDS011;74803;44.756;19.218;2024-01-10T04:37:02;65.25;;;27.90;;
84577;SDS011;74803;44.756;19.218;2024-01-10T04:39:28;71.10;;;31.20;;
84577;SDS011;74803;44.756;19.218;2024-01-10T04:41:54;63.58;;;29.98;;
84577;SDS011;74803;44.756;19.218;2024-01-10T04:44:20;71.72;;;34.88;;
84577;SDS011;74803;44.756;19.218;2024-01-10T04:46:46;69.85;;;38.83;;
84577;SDS011;74803;44.756;19.218;2024-01-10T04:49:11;71.50;;;32.58;;
84577;SDS011;74803;44.756;19.218;2024-01-10T04:51:37;84.00;;;42.83;;
84577;SDS011;74803;44.756;19.218;2024-01-10T04:54:03;105.10;;;53.42;;
84577;SDS011;74803;44.756;19.218;2024-01-10T04:56:28;120.45;;;55.40;;
84577;SDS011;74803;44.756;19.218;2024-01-10T04:58:54;122.35;;;60.72;;
84577;SDS011;74803;44.756;19.218;2024-01-10T05:01:20;121.82;;;54.22;;
84577;SDS011;74803;44.756;19.218;2024-01-10T05:03:45;97.07;;;47.78;;
84577;SDS011;74803;44.756;19.218;2024-01-10T05:06:11;93.72;;;48.22;;
84577;SDS011;74803;44.756;19.218;2024-01-10T05:08:36;79.07;;;42.08;;
84577;SDS011;74803;44.756;19.218;2024-01-10T05:11:02;86.97;;;38.80;;
84577;SDS011;74803;44.756;19.218;2024-01-10T05:13:28;87.10;;;43.97;;
84577;SDS011;74803;44.756;19.218;2024-01-10T05:15:54;132.70;;;61.53;;
84577;SDS011;74803;44.756;19.218;2024-01-10T05:18:20;108.85;;;57.03;;
84577;SDS011;74803;44.756;19.218;2024-01-10T05:20:46;94.82;;;43.22;;
84577;SDS011;74803;44.756;19.218;2024-01-10T05:23:12;73.47;;;32.65;;
84577;SDS011;74803;44.756;19.218;2024-01-10T05:25:38;93.38;;;39.63;;
84577;SDS011;74803;44.756;19.218;2024-01-10T05:28:04;86.95;;;33.70;;
84577;SDS011;74803;44.756;19.218;2024-01-10T05:30:30;144.45;;;66.32;;
84577;SDS011;74803;44.756;19.218;2024-01-10T05:32:55;99.88;;;52.67;;
84577;SDS011;74803;44.756;19.218;2024-01-10T05:35:21;128.77;;;57.88;;
84577;SDS011;74803;44.756;19.218;2024-01-10T05:37:47;105.88;;;44.50;;
84577;SDS011;74803;44.756;19.218;2024-01-10T05:42:38;124.85;;;61.50;;
84577;SDS011;74803;44.756;19.218;2024-01-10T05:45:04;126.57;;;60.38;;
84577;SDS011;74803;44.756;19.218;2024-01-10T05:47:31;122.97;;;60.17;;
84577;SDS011;74803;44.756;19.218;2024-01-10T05:49:57;133.55;;;51.83;;
84577;SDS011;74803;44.756;19.218;2024-01-10T05:54:49;94.68;;;42.92;;
84577;SDS011;74803;44.756;19.218;2024-01-10T05:57:16;123.57;;;56.80;;
84577;SDS011;74803;44.756;19.218;2024-01-10T05:59:41;104.03;;;53.78;;
84577;SDS011;74803;44.756;19.218;2024-01-10T06:02:07;104.80;;;53.60;;
84577;SDS011;74803;44.756;19.218;2024-01-10T06:04:32;97.47;;;49.40;;
84577;SDS011;74803;44.756;19.218;2024-01-10T06:06:58;104.53;;;52.53;;
84577;SDS011;74803;44.756;19.218;2024-01-10T06:11:50;94.95;;;40.60;;
84577;SDS011;74803;44.756;19.218;2024-01-10T06:14:17;71.60;;;38.97;;
84577;SDS011;74803;44.756;19.218;2024-01-10T06:16:44;103.07;;;45.50;;
84577;SDS011;74803;44.756;19.218;2024-01-10T06:19:11;90.82;;;38.80;;
84577;SDS011;74803;44.756;19.218;2024-01-10T06:21:37;79.22;;;41.08;;
84577;SDS011;74803;44.756;19.218;2024-01-10T06:24:03;76.90;;;35.47;;
84577;SDS011;74803;44.756;19.218;2024-01-10T06:28:54;64.25;;;29.50;;
84577;SDS011;74803;44.756;19.218;2024-01-10T06:31:20;72.30;;;35.97;;
84577;SDS011;74803;44.756;19.218;2024-01-10T06:33:49;77.70;;;35.00;;
84577;SDS011;74803;44.756;19.218;2024-01-10T06:36:14;73.47;;;35.88;;
84577;SDS011;74803;44.756;19.218;2024-01-10T06:38:40;80.25;;;36.67;;
84577;SDS011;74803;44.756;19.218;2024-01-10T06:41:09;80.00;;;36.67;;
84577;SDS011;74803;44.756;19.218;2024-01-10T06:43:36;67.63;;;34.97;;
84577;SDS011;74803;44.756;19.218;2024-01-10T06:48:28;87.25;;;36.92;;
84577;SDS011;74803;44.756;19.218;2024-01-10T06:50:54;86.32;;;46.33;;
84577;SDS011;74803;44.756;19.218;2024-01-10T06:53:23;87.75;;;39.75;;
84577;SDS011;74803;44.756;19.218;2024-01-10T06:55:49;83.55;;;41.90;;
84577;SDS011;74803;44.756;19.218;2024-01-10T06:58:15;172.25;;;65.75;;
84577;SDS011;74803;44.756;19.218;2024-01-10T07:00:42;211.68;;;92.32;;
84577;SDS011;74803;44.756;19.218;2024-01-10T07:03:13;171.77;;;70.85;;
84577;SDS011;74803;44.756;19.218;2024-01-10T07:05:38;139.90;;;56.97;;
84577;SDS011;74803;44.756;19.218;2024-01-10T07:08:04;88.45;;;42.60;;
84577;SDS011;74803;44.756;19.218;2024-01-10T07:10:33;177.32;;;65.38;;
84577;SDS011;74803;44.756;19.218;2024-01-10T07:13:03;232.27;;;88.90;;
84577;SDS011;74803;44.756;19.218;2024-01-10T07:15:29;205.93;;;69.13;;
84577;SDS011;74803;44.756;19.218;2024-01-10T07:17:56;329.25;;;138.75;;
84577;SDS011;74803;44.756;19.218;2024-01-10T07:20:22;310.88;;;125.47;;
84577;SDS011;74803;44.756;19.218;2024-01-10T07:22:49;351.08;;;131.38;;
84577;SDS011;74803;44.756;19.218;2024-01-10T07:25:16;267.88;;;111.65;;
84577;SDS011;74803;44.756;19.218;2024-01-10T07:27:45;415.55;;;171.73;;
84577;SDS011;74803;44.756;19.218;2024-01-10T07:30:11;233.05;;;101.70;;
84577;SDS011;74803;44.756;19.218;2024-01-10T07:32:45;144.25;;;78.63;;
84577;SDS011;74803;44.756;19.218;2024-01-10T07:35:12;148.35;;;65.03;;
84577;SDS011;74803;44.756;19.218;2024-01-10T07:37:41;128.20;;;61.47;;
84577;SDS011;74803;44.756;19.218;2024-01-10T07:40:10;151.93;;;66.80;;
84577;SDS011;74803;44.756;19.218;2024-01-10T07:42:36;106.47;;;60.03;;
84577;SDS011;74803;44.756;19.218;2024-01-10T07:45:03;113.90;;;57.13;;
84577;SDS011;74803;44.756;19.218;2024-01-10T07:47:33;121.80;;;53.33;;
84577;SDS011;74803;44.756;19.218;2024-01-10T07:50:05;123.15;;;55.70;;
84577;SDS011;74803;44.756;19.218;2024-01-10T07:52:32;107.15;;;53.20;;
84577;SDS011;74803;44.756;19.218;2024-01-10T07:54:58;112.05;;;53.60;;
84577;SDS011;74803;44.756;19.218;2024-01-10T07:57:25;95.60;;;47.00;;
84577;SDS011;74803;44.756;19.218;2024-01-10T07:59:53;111.10;;;49.60;;
84577;SDS011;74803;44.756;19.218;2024-01-10T08:02:19;143.20;;;67.57;;
84577;SDS011;74803;44.756;19.218;2024-01-10T08:04:45;117.85;;;62.47;;
84577;SDS011;74803;44.756;19.218;2024-01-10T08:07:11;116.22;;;47.13;;
84577;SDS011;74803;44.756;19.218;2024-01-10T08:09:36;110.28;;;58.30;;
84577;SDS011;74803;44.756;19.218;2024-01-10T08:12:05;93.72;;;48.42;;
84577;SDS011;74803;44.756;19.218;2024-01-10T08:14:31;84.03;;;45.13;;
84577;SDS011;74803;44.756;19.218;2024-01-10T08:16:58;122.75;;;52.70;;
84577;SDS011;74803;44.756;19.218;2024-01-10T08:19:25;103.97;;;44.42;;
84577;SDS011;74803;44.756;19.218;2024-01-10T08:21:53;72.72;;;40.28;;
84577;SDS011;74803;44.756;19.218;2024-01-10T08:24:19;83.13;;;46.65;;
84577;SDS011;74803;44.756;19.218;2024-01-10T08:26:48;87.68;;;48.25;;
84577;SDS011;74803;44.756;19.218;2024-01-10T08:29:21;98.25;;;49.28;;
84577;SDS011;74803;44.756;19.218;2024-01-10T08:31:50;83.25;;;45.60;;
84577;SDS011;74803;44.756;19.218;2024-01-10T08:34:18;92.13;;;47.03;;
84577;SDS011;74803;44.756;19.218;2024-01-10T08:36:43;84.15;;;45.10;;
84577;SDS011;74803;44.756;19.218;2024-01-10T08:39:11;80.97;;;42.45;;
84577;SDS011;74803;44.756;19.218;2024-01-10T08:41:40;104.22;;;52.78;;
84577;SDS011;74803;44.756;19.218;2024-01-10T08:44:10;74.05;;;40.50;;
84577;SDS011;74803;44.756;19.218;2024-01-10T08:46:36;92.78;;;46.00;;
84577;SDS011;74803;44.756;19.218;2024-01-10T08:49:03;105.93;;;49.78;;
84577;SDS011;74803;44.756;19.218;2024-01-10T08:51:29;104.15;;;45.65;;
84577;SDS011;74803;44.756;19.218;2024-01-10T08:53:56;94.45;;;45.25;;
84577;SDS011;74803;44.756;19.218;2024-01-10T08:56:22;99.78;;;49.55;;
84577;SDS011;74803;44.756;19.218;2024-01-10T08:58:48;100.63;;;55.20;;
84577;SDS011;74803;44.756;19.218;2024-01-10T09:01:13;97.20;;;49.00;;
84577;SDS011;74803;44.756;19.218;2024-01-10T09:03:39;99.97;;;47.80;;
84577;SDS011;74803;44.756;19.218;2024-01-10T09:06:04;106.95;;;56.97;;
84577;SDS011;74803;44.756;19.218;2024-01-10T09:08:32;106.35;;;52.67;;
84577;SDS011;74803;44.756;19.218;2024-01-10T09:11:00;112.25;;;55.90;;
84577;SDS011;74803;44.756;19.218;2024-01-10T09:13:25;131.35;;;65.68;;
84577;SDS011;74803;44.756;19.218;2024-01-10T09:15:51;116.90;;;58.45;;
84577;SDS011;74803;44.756;19.218;2024-01-10T09:18:17;107.35;;;53.25;;
84577;SDS011;74803;44.756;19.218;2024-01-10T09:20:43;113.15;;;51.80;;
84577;SDS011;74803;44.756;19.218;2024-01-10T09:23:10;96.40;;;54.80;;
84577;SDS011;74803;44.756;19.218;2024-01-10T09:25:39;114.28;;;54.85;;
84577;SDS011;74803;44.756;19.218;2024-01-10T09:30:31;81.30;;;40.70;;
84577;SDS011;74803;44.756;19.218;2024-01-10T09:32:57;96.38;;;42.22;;
84577;SDS011;74803;44.756;19.218;2024-01-10T09:35:27;73.30;;;39.03;;
84577;SDS011;74803;44.756;19.218;2024-01-10T09:37:53;75.85;;;42.42;;
84577;SDS011;74803;44.756;19.218;2024-01-10T09:40:24;73.80;;;41.13;;
84577;SDS011;74803;44.756;19.218;2024-01-10T09:42:55;88.65;;;43.83;;
84577;SDS011;74803;44.756;19.218;2024-01-10T09:45:22;84.78;;;42.03;;
84577;SDS011;74803;44.756;19.218;2024-01-10T09:47:56;88.93;;;46.65;;
84577;SDS011;74803;44.756;19.218;2024-01-10T09:50:22;88.88;;;45.25;;
84577;SDS011;74803;44.756;19.218;2024-01-10T09:52:51;92.97;;;56.50;;
84577;SDS011;74803;44.756;19.218;2024-01-10T09:57:09;96.53;;;54.10;;
84577;SDS011;74803;44.756;19.218;2024-01-10T09:59:35;102.43;;;50.35;;
84577;SDS011;74803;44.756;19.218;2024-01-10T10:02:01;85.65;;;45.45;;
84577;SDS011;74803;44.756;19.218;2024-01-10T10:04:29;86.85;;;46.15;;
84577;SDS011;74803;44.756;19.218;2024-01-10T10:06:59;96.85;;;50.63;;
84577;SDS011;74803;44.756;19.218;2024-01-10T10:09:31;95.47;;;50.95;;
84577;SDS011;74803;44.756;19.218;2024-01-10T10:11:58;131.48;;;68.45;;
84577;SDS011;74803;44.756;19.218;2024-01-10T10:14:28;142.48;;;71.40;;
84577;SDS011;74803;44.756;19.218;2024-01-10T10:17:00;122.22;;;60.17;;
84577;SDS011;74803;44.756;19.218;2024-01-10T10:19:47;107.68;;;58.05;;
84577;SDS011;74803;44.756;19.218;2024-01-10T10:22:13;111.68;;;62.33;;
84577;SDS011;74803;44.756;19.218;2024-01-10T10:24:39;112.65;;;55.75;;
84577;SDS011;74803;44.756;19.218;2024-01-10T10:27:10;104.22;;;54.28;;
84577;SDS011;74803;44.756;19.218;2024-01-10T10:29:38;100.60;;;54.70;;
84577;SDS011;74803;44.756;19.218;2024-01-10T10:32:07;131.10;;;67.53;;
84577;SDS011;74803;44.756;19.218;2024-01-10T10:36:59;118.05;;;62.05;;
84577;SDS011;74803;44.756;19.218;2024-01-10T10:39:24;142.27;;;71.10;;
84577;SDS011;74803;44.756;19.218;2024-01-10T10:41:52;156.73;;;76.22;;
84577;SDS011;74803;44.756;19.218;2024-01-10T10:44:24;137.70;;;71.22;;
84577;SDS011;74803;44.756;19.218;2024-01-10T10:46:52;126.13;;;79.05;;
84577;SDS011;74803;44.756;19.218;2024-01-10T10:49:28;137.13;;;80.20;;
84577;SDS011;74803;44.756;19.218;2024-01-10T10:51:57;157.05;;;83.22;;
84577;SDS011;74803;44.756;19.218;2024-01-10T10:54:28;156.05;;;81.80;;
84577;SDS011;74803;44.756;19.218;2024-01-10T10:56:59;214.45;;;112.00;;
84577;SDS011;74803;44.756;19.218;2024-01-10T10:59:29;224.25;;;115.50;;
84577;SDS011;74803;44.756;19.218;2024-01-10T11:01:59;252.27;;;133.98;;
84577;SDS011;74803;44.756;19.218;2024-01-10T11:04:29;244.60;;;125.18;;
84577;SDS011;74803;44.756;19.218;2024-01-10T11:06:55;231.77;;;122.00;;
84577;SDS011;74803;44.756;19.218;2024-01-10T11:09:22;317.95;;;156.68;;
84577;SDS011;74803;44.756;19.218;2024-01-10T11:12:10;252.10;;;133.27;;
84577;SDS011;74803;44.756;19.218;2024-01-10T11:25:40;178.38;;;88.80;;
84577;SDS011;74803;44.756;19.218;2024-01-10T11:28:06;195.88;;;99.88;;
84577;SDS011;74803;44.756;19.218;2024-01-10T11:30:35;265.27;;;119.93;;
84577;SDS011;74803;44.756;19.218;2024-01-10T11:36:05;202.07;;;101.75;;
84577;SDS011;74803;44.756;19.218;2024-01-10T11:43:35;183.27;;;92.40;;
84577;SDS011;74803;44.756;19.218;2024-01-10T11:46:02;192.23;;;97.45;;
84577;SDS011;74803;44.756;19.218;2024-01-10T11:48:30;168.65;;;85.78;;
84577;SDS011;74803;44.756;19.218;2024-01-10T11:50:57;166.95;;;87.95;;
84577;SDS011;74803;44.756;19.218;2024-01-10T11:56:19;161.77;;;78.10;;
84577;SDS011;74803;44.756;19.218;2024-01-10T11:58:52;165.52;;;84.13;;
84577;SDS011;74803;44.756;19.218;2024-01-10T12:01:31;139.98;;;78.75;;
84577;SDS011;74803;44.756;19.218;2024-01-10T12:04:21;148.02;;;82.70;;
84577;SDS011;74803;44.756;19.218;2024-01-10T12:06:48;135.48;;;71.60;;
84577;SDS011;74803;44.756;19.218;2024-01-10T12:09:14;124.30;;;64.95;;
84577;SDS011;74803;44.756;19.218;2024-01-10T12:11:42;119.72;;;68.18;;
84577;SDS011;74803;44.756;19.218;2024-01-10T12:14:17;137.60;;;78.63;;
84577;SDS011;74803;44.756;19.218;2024-01-10T12:17:07;131.63;;;74.32;;
84577;SDS011;74803;44.756;19.218;2024-01-10T12:19:48;138.50;;;74.38;;
84577;SDS011;74803;44.756;19.218;2024-01-10T12:22:14;160.90;;;82.18;;
84577;SDS011;74803;44.756;19.218;2024-01-10T12:24:48;138.52;;;76.18;;
84577;SDS011;74803;44.756;19.218;2024-01-10T12:27:16;137.70;;;77.50;;
84577;SDS011;74803;44.756;19.218;2024-01-10T12:29:43;149.88;;;75.38;;
84577;SDS011;74803;44.756;19.218;2024-01-10T12:32:08;130.65;;;67.82;;
84577;SDS011;74803;44.756;19.218;2024-01-10T12:34:37;134.82;;;70.68;;
84577;SDS011;74803;44.756;19.218;2024-01-10T12:37:03;125.82;;;70.30;;
84577;SDS011;74803;44.756;19.218;2024-01-10T12:39:30;144.35;;;72.72;;
84577;SDS011;74803;44.756;19.218;2024-01-10T12:41:57;134.73;;;74.80;;
84577;SDS011;74803;44.756;19.218;2024-01-10T12:44:26;130.77;;;72.30;;
84577;SDS011;74803;44.756;19.218;2024-01-10T12:46:54;128.23;;;64.50;;
84577;SDS011;74803;44.756;19.218;2024-01-10T12:49:21;131.15;;;64.10;;
84577;SDS011;74803;44.756;19.218;2024-01-10T12:51:48;119.15;;;57.88;;
84577;SDS011;74803;44.756;19.218;2024-01-10T12:54:15;128.90;;;57.38;;
84577;SDS011;74803;44.756;19.218;2024-01-10T12:56:43;115.10;;;60.17;;
84577;SDS011;74803;44.756;19.218;2024-01-10T12:59:08;93.88;;;57.80;;
84577;SDS011;74803;44.756;19.218;2024-01-10T13:01:35;106.13;;;52.03;;
84577;SDS011;74803;44.756;19.218;2024-01-10T13:04:01;113.72;;;56.83;;
84577;SDS011;74803;44.756;19.218;2024-01-10T13:06:27;105.53;;;58.08;;
84577;SDS011;74803;44.756;19.218;2024-01-10T13:08:54;110.93;;;59.20;;
84577;SDS011;74803;44.756;19.218;2024-01-10T13:11:26;98.93;;;53.72;;
84577;SDS011;74803;44.756;19.218;2024-01-10T13:13:52;102.45;;;53.78;;
84577;SDS011;74803;44.756;19.218;2024-01-10T13:16:20;91.43;;;49.70;;
84577;SDS011;74803;44.756;19.218;2024-01-10T13:18:46;88.88;;;47.92;;
84577;SDS011;74803;44.756;19.218;2024-01-10T13:21:14;102.88;;;49.60;;
84577;SDS011;74803;44.756;19.218;2024-01-10T13:23:54;88.65;;;44.92;;
84577;SDS011;74803;44.756;19.218;2024-01-10T13:26:24;104.07;;;51.42;;
84577;SDS011;74803;44.756;19.218;2024-01-10T13:28:50;106.82;;;53.08;;
84577;SDS011;74803;44.756;19.218;2024-01-10T13:31:24;91.47;;;44.05;;
84577;SDS011;74803;44.756;19.218;2024-01-10T13:33:51;80.07;;;39.90;;
84577;SDS011;74803;44.756;19.218;2024-01-10T13:36:18;89.57;;;39.08;;
84577;SDS011;74803;44.756;19.218;2024-01-10T13:38:48;94.05;;;43.47;;
84577;SDS011;74803;44.756;19.218;2024-01-10T13:41:18;87.78;;;48.72;;
84577;SDS011;74803;44.756;19.218;2024-01-10T13:43:47;76.80;;;40.33;;
84577;SDS011;74803;44.756;19.218;2024-01-10T13:46:13;80.32;;;43.40;;
84577;SDS011;74803;44.756;19.218;2024-01-10T13:48:38;99.47;;;47.85;;
84577;SDS011;74803;44.756;19.218;2024-01-10T13:51:04;76.82;;;42.67;;
84577;SDS011;74803;44.756;19.218;2024-01-10T13:53:30;77.93;;;43.75;;
84577;SDS011;74803;44.756;19.218;2024-01-10T13:55:55;72.88;;;36.90;;
84577;SDS011;74803;44.756;19.218;2024-01-10T13:58:21;90.57;;;36.92;;
84577;SDS011;74803;44.756;19.218;2024-01-10T14:00:49;89.15;;;41.22;;
84577;SDS011;74803;44.756;19.218;2024-01-10T14:03:18;84.35;;;44.67;;
84577;SDS011;74803;44.756;19.218;2024-01-10T14:05:44;93.68;;;51.75;;
84577;SDS011;74803;44.756;19.218;2024-01-10T14:08:10;97.47;;;51.03;;
84577;SDS011;74803;44.756;19.218;2024-01-10T14:10:36;106.57;;;45.30;;
84577;SDS011;74803;44.756;19.218;2024-01-10T14:13:04;109.35;;;54.83;;
84577;SDS011;74803;44.756;19.218;2024-01-10T14:15:29;114.30;;;56.85;;
84577;SDS011;74803;44.756;19.218;2024-01-10T14:17:55;113.15;;;60.10;;
84577;SDS011;74803;44.756;19.218;2024-01-10T14:20:23;123.55;;;60.88;;
84577;SDS011;74803;44.756;19.218;2024-01-10T14:22:49;93.10;;;46.13;;
84577;SDS011;74803;44.756;19.218;2024-01-10T14:25:15;96.82;;;46.28;;
84577;SDS011;74803;44.756;19.218;2024-01-10T14:27:41;117.93;;;53.65;;
84577;SDS011;74803;44.756;19.218;2024-01-10T14:30:07;125.25;;;50.97;;
84577;SDS011;74803;44.756;19.218;2024-01-10T14:32:35;109.47;;;49.63;;
84577;SDS011;74803;44.756;19.218;2024-01-10T14:35:02;100.45;;;45.83;;
84577;SDS011;74803;44.756;19.218;2024-01-10T14:37:30;130.35;;;56.67;;
84577;SDS011;74803;44.756;19.218;2024-01-10T14:39:56;111.30;;;58.90;;
84577;SDS011;74803;44.756;19.218;2024-01-10T14:42:23;118.63;;;52.92;;
84577;SDS011;74803;44.756;19.218;2024-01-10T14:44:49;101.50;;;52.03;;
84577;SDS011;74803;44.756;19.218;2024-01-10T14:47:14;96.15;;;50.60;;
84577;SDS011;74803;44.756;19.218;2024-01-10T14:49:40;96.15;;;47.63;;
84577;SDS011;74803;44.756;19.218;2024-01-10T14:52:06;127.95;;;57.42;;
84577;SDS011;74803;44.756;19.218;2024-01-10T14:54:32;113.18;;;61.72;;
84577;SDS011;74803;44.756;19.218;2024-01-10T14:56:57;119.55;;;60.08;;